sensor_id;sensor_type;location;lat;lon;timestamp;pressure;altitude;pressure_sealevel;temperature;humidity
76994;BME280;66749;47.406;18.822;2023-01-28T00:00:19;100511.44;;;1.66;83.54
76994;BME280;66749;47.406;18.822;2023-01-28T00:00:54;100515.81;;;1.62;83.61
76994;BME280;66749;47.406;18.822;2023-01-28T00:01:26;100509.81;;;1.62;83.61
76994;BME280;66749;47.406;18.822;2023-01-28T00:01:58;100521.03;;;1.56;83.74
76994;BME280;66749;47.406;18.822;2023-01-28T00:02:29;100512.44;;;1.57;83.55
76994;BME280;66749;47.406;18.822;2023-01-28T00:03:02;100513.31;;;1.58;83.42
76994;BME280;66749;47.406;18.822;2023-01-28T00:03:34;100511.59;;;1.57;83.45
76994;BME280;66749;47.406;18.822;2023-01-28T00:04:05;100521.88;;;1.58;83.74
76994;BME280;66749;47.406;18.822;2023-01-28T00:04:37;100511.56;;;1.58;83.15
76994;BME280;66749;47.406;18.822;2023-01-28T00:05:10;100515.88;;;1.59;83.20
76994;BME280;66749;47.406;18.822;2023-01-28T00:05:43;100519.25;;;1.61;83.30
76994;BME280;66749;47.406;18.822;2023-01-28T00:06:14;100515.00;;;1.60;83.46
76994;BME280;66749;47.406;18.822;2023-01-28T00:06:46;100516.72;;;1.60;83.29
76994;BME280;66749;47.406;18.822;2023-01-28T00:07:18;100519.22;;;1.63;83.46
76994;BME280;66749;47.406;18.822;2023-01-28T00:07:50;100520.19;;;1.56;83.23
76994;BME280;66749;47.406;18.822;2023-01-28T00:08:22;100516.75;;;1.57;83.44
76994;BME280;66749;47.406;18.822;2023-01-28T00:08:54;100526.16;;;1.59;83.40
76994;BME280;66749;47.406;18.822;2023-01-28T00:09:33;100515.06;;;1.56;83.38
76994;BME280;66749;47.406;18.822;2023-01-28T00:10:05;100526.25;;;1.53;83.85
76994;BME280;66749;47.406;18.822;2023-01-28T00:10:37;100528.00;;;1.51;83.65
76994;BME280;66749;47.406;18.822;2023-01-28T00:11:11;100526.25;;;1.53;84.08
76994;BME280;66749;47.406;18.822;2023-01-28T00:11:43;100524.56;;;1.52;83.76
76994;BME280;66749;47.406;18.822;2023-01-28T00:12:16;100522.00;;;1.52;83.61
76994;BME280;66749;47.406;18.822;2023-01-28T00:12:48;100524.63;;;1.48;83.60
76994;BME280;66749;47.406;18.822;2023-01-28T00:13:23;100523.72;;;1.50;83.95
76994;BME280;66749;47.406;18.822;2023-01-28T00:13:56;100518.50;;;1.55;83.73
76994;BME280;66749;47.406;18.822;2023-01-28T00:14:28;100526.25;;;1.53;84.03
76994;BME280;66749;47.406;18.822;2023-01-28T00:15:00;100522.06;;;1.48;83.82
76994;BME280;66749;47.406;18.822;2023-01-28T00:15:33;100524.66;;;1.46;84.11
76994;BME280;66749;47.406;18.822;2023-01-28T00:16:07;100524.59;;;1.49;84.03
76994;BME280;66749;47.406;18.822;2023-01-28T00:16:39;100522.88;;;1.51;83.98
76994;BME280;66749;47.406;18.822;2023-01-28T00:17:11;100519.41;;;1.51;84.08
76994;BME280;66749;47.406;18.822;2023-01-28T00:17:43;100522.81;;;1.54;84.18
76994;BME280;66749;47.406;18.822;2023-01-28T00:18:14;100522.00;;;1.51;84.16
76994;BME280;66749;47.406;18.822;2023-01-28T00:18:46;100522.88;;;1.51;84.14
76994;BME280;66749;47.406;18.822;2023-01-28T00:19:18;100521.09;;;1.55;83.89
76994;BME280;66749;47.406;18.822;2023-01-28T00:19:49;100520.34;;;1.48;84.06
76994;BME280;66749;47.406;18.822;2023-01-28T00:20:21;100521.22;;;1.47;84.14
76994;BME280;66749;47.406;18.822;2023-01-28T00:21:25;100522.91;;;1.48;84.82
76994;BME280;66749;47.406;18.822;2023-01-28T00:21:56;100517.78;;;1.47;84.12
76994;BME280;66749;47.406;18.822;2023-01-28T00:22:28;100525.50;;;1.47;84.02
76994;BME280;66749;47.406;18.822;2023-01-28T00:23:00;100524.69;;;1.43;83.93
76994;BME280;66749;47.406;18.822;2023-01-28T00:23:34;100525.53;;;1.45;84.23
76994;BME280;66749;47.406;18.822;2023-01-28T00:24:07;100526.41;;;1.44;84.16
76994;BME280;66749;47.406;18.822;2023-01-28T00:24:40;100528.13;;;1.45;84.34
76994;BME280;66749;47.406;18.822;2023-01-28T00:25:11;100525.56;;;1.42;84.40
76994;BME280;66749;47.406;18.822;2023-01-28T00:25:44;100526.41;;;1.43;84.49
76994;BME280;66749;47.406;18.822;2023-01-28T00:26:15;100524.72;;;1.42;84.42
76994;BME280;66749;47.406;18.822;2023-01-28T00:26:47;100523.84;;;1.44;84.48
76994;BME280;66749;47.406;18.822;2023-01-28T00:27:18;100520.41;;;1.45;84.47
76994;BME280;66749;47.406;18.822;2023-01-28T00:27:53;100525.47;;;1.48;84.47
76994;BME280;66749;47.406;18.822;2023-01-28T00:28:24;100520.41;;;1.45;84.04
76994;BME280;66749;47.406;18.822;2023-01-28T00:28:56;100523.91;;;1.39;84.62
76994;BME280;66749;47.406;18.822;2023-01-28T00:29:28;100519.56;;;1.43;84.57
76994;BME280;66749;47.406;18.822;2023-01-28T00:30:02;100523.91;;;1.39;84.52
76994;BME280;66749;47.406;18.822;2023-01-28T00:30:34;100519.69;;;1.37;84.50
76994;BME280;66749;47.406;18.822;2023-01-28T00:31:23;100522.28;;;1.34;84.58
76994;BME280;66749;47.406;18.822;2023-01-28T00:31:56;100520.56;;;1.34;84.53
76994;BME280;66749;47.406;18.822;2023-01-28T00:32:28;100524.00;;;1.33;84.72
76994;BME280;66749;47.406;18.822;2023-01-28T00:33:00;100524.81;;;1.37;84.83
76994;BME280;66749;47.406;18.822;2023-01-28T00:33:31;100525.75;;;1.31;85.07
76994;BME280;66749;47.406;18.822;2023-01-28T00:34:03;100525.78;;;1.30;84.72
76994;BME280;66749;47.406;18.822;2023-01-28T00:34:35;100530.09;;;1.28;85.03
76994;BME280;66749;47.406;18.822;2023-01-28T00:35:07;100525.72;;;1.33;85.02
76994;BME280;66749;47.406;18.822;2023-01-28T00:35:39;100522.31;;;1.32;84.62
76994;BME280;66749;47.406;18.822;2023-01-28T00:36:11;100527.38;;;1.35;84.54
76994;BME280;66749;47.406;18.822;2023-01-28T00:36:43;100526.56;;;1.33;84.82
76994;BME280;66749;47.406;18.822;2023-01-28T00:37:15;100528.38;;;1.27;84.97
76994;BME280;66749;47.406;18.822;2023-01-28T00:37:47;100523.25;;;1.27;84.88
76994;BME280;66749;47.406;18.822;2023-01-28T00:38:21;100522.38;;;1.29;84.76
76994;BME280;66749;47.406;18.822;2023-01-28T00:38:55;100529.25;;;1.27;85.08
76994;BME280;66749;47.406;18.822;2023-01-28T00:39:32;100534.38;;;1.29;84.88
76994;BME280;66749;47.406;18.822;2023-01-28T00:40:04;100533.53;;;1.27;84.89
76994;BME280;66749;47.406;18.822;2023-01-28T00:40:35;100529.22;;;1.30;84.98
76994;BME280;66749;47.406;18.822;2023-01-28T00:41:15;100536.00;;;1.33;85.13
76994;BME280;66749;47.406;18.822;2023-01-28T00:41:47;100528.31;;;1.31;84.82
76994;BME280;66749;47.406;18.822;2023-01-28T00:42:19;100528.31;;;1.31;85.25
76994;BME280;66749;47.406;18.822;2023-01-28T00:42:52;100528.31;;;1.33;85.16
76994;BME280;66749;47.406;18.822;2023-01-28T00:43:24;100530.00;;;1.34;85.42
76994;BME280;66749;47.406;18.822;2023-01-28T00:43:57;100529.25;;;1.27;84.88
76994;BME280;66749;47.406;18.822;2023-01-28T00:44:28;100530.06;;;1.31;85.49
76994;BME280;66749;47.406;18.822;2023-01-28T00:45:00;100533.44;;;1.33;85.02
76994;BME280;66749;47.406;18.822;2023-01-28T00:45:32;100531.81;;;1.29;84.67
76994;BME280;66749;47.406;18.822;2023-01-28T00:46:05;100531.81;;;1.29;84.78
76994;BME280;66749;47.406;18.822;2023-01-28T00:46:40;100532.63;;;1.31;85.09
76994;BME280;66749;47.406;18.822;2023-01-28T00:47:14;100534.34;;;1.30;85.20
76994;BME280;66749;47.406;18.822;2023-01-28T00:47:48;100529.19;;;1.32;84.94
76994;BME280;66749;47.406;18.822;2023-01-28T00:48:20;100537.69;;;1.35;84.93
76994;BME280;66749;47.406;18.822;2023-01-28T00:48:54;100533.38;;;1.36;84.96
76994;BME280;66749;47.406;18.822;2023-01-28T00:49:26;100533.38;;;1.36;85.10
76994;BME280;66749;47.406;18.822;2023-01-28T00:49:58;100533.38;;;1.36;84.83
76994;BME280;66749;47.406;18.822;2023-01-28T00:50:29;100536.78;;;1.38;84.69
76994;BME280;66749;47.406;18.822;2023-01-28T00:51:02;100536.75;;;1.39;84.71
76994;BME280;66749;47.406;18.822;2023-01-28T00:51:34;100538.44;;;1.42;84.93
76994;BME280;66749;47.406;18.822;2023-01-28T00:52:05;100531.59;;;1.41;84.59
76994;BME280;66749;47.406;18.822;2023-01-28T00:52:37;100535.94;;;1.36;84.69
76994;BME280;66749;47.406;18.822;2023-01-28T00:53:08;100540.25;;;1.35;85.16
76994;BME280;66749;47.406;18.822;2023-01-28T00:53:40;100531.69;;;1.35;84.84
76994;BME280;66749;47.406;18.822;2023-01-28T00:54:12;100540.34;;;1.31;84.89
76994;BME280;66749;47.406;18.822;2023-01-28T00:54:44;100542.94;;;1.28;85.38
76994;BME280;66749;47.406;18.822;2023-01-28T00:55:16;100536.94;;;1.27;85.44
76994;BME280;66749;47.406;18.822;2023-01-28T00:55:48;100542.06;;;1.30;85.14
76994;BME280;66749;47.406;18.822;2023-01-28T00:56:20;100536.00;;;1.33;85.28
76994;BME280;66749;47.406;18.822;2023-01-28T00:56:51;100542.84;;;1.34;84.74
76994;BME280;66749;47.406;18.822;2023-01-28T00:57:23;100543.72;;;1.33;85.37
76994;BME280;66749;47.406;18.822;2023-01-28T00:57:55;100541.16;;;1.33;85.09
76994;BME280;66749;47.406;18.822;2023-01-28T00:58:27;100547.19;;;1.30;85.31
76994;BME280;66749;47.406;18.822;2023-01-28T00:58:59;100548.03;;;1.32;85.08
76994;BME280;66749;47.406;18.822;2023-01-28T00:59:32;100547.16;;;1.32;85.02
76994;BME280;66749;47.406;18.822;2023-01-28T01:00:05;100548.03;;;1.31;85.41
76994;BME280;66749;47.406;18.822;2023-01-28T01:00:44;100547.25;;;1.26;85.32
76994;BME280;66749;47.406;18.822;2023-01-28T01:01:20;100548.88;;;1.33;85.23
76994;BME280;66749;47.406;18.822;2023-01-28T01:01:52;100541.97;;;1.35;85.32
76994;BME280;66749;47.406;18.822;2023-01-28T01:02:23;100546.25;;;1.34;85.34
76994;BME280;66749;47.406;18.822;2023-01-28T01:02:58;100545.41;;;1.34;85.36
76994;BME280;66749;47.406;18.822;2023-01-28T01:03:31;100545.41;;;1.34;85.14
76994;BME280;66749;47.406;18.822;2023-01-28T01:04:03;100551.44;;;1.33;84.89
76994;BME280;66749;47.406;18.822;2023-01-28T01:04:37;100550.59;;;1.32;85.14
76994;BME280;66749;47.406;18.822;2023-01-28T01:05:18;100547.16;;;1.32;85.29
76994;BME280;66749;47.406;18.822;2023-01-28T01:05:49;100550.59;;;1.32;85.21
76994;BME280;66749;47.406;18.822;2023-01-28T01:06:21;100552.28;;;1.33;85.21
76994;BME280;66749;47.406;18.822;2023-01-28T01:06:54;100554.88;;;1.32;85.59
76994;BME280;66749;47.406;18.822;2023-01-28T01:07:28;100548.06;;;1.28;85.18
76994;BME280;66749;47.406;18.822;2023-01-28T01:08:05;100548.03;;;1.32;85.69
76994;BME280;66749;47.406;18.822;2023-01-28T01:08:39;100548.03;;;1.31;85.05
76994;BME280;66749;47.406;18.822;2023-01-28T01:09:13;100548.91;;;1.31;85.25
76994;BME280;66749;47.406;18.822;2023-01-28T01:09:45;100547.16;;;1.32;85.47
76994;BME280;66749;47.406;18.822;2023-01-28T01:10:19;100547.16;;;1.32;85.01
76994;BME280;66749;47.406;18.822;2023-01-28T01:10:57;100548.91;;;1.31;85.65
76994;BME280;66749;47.406;18.822;2023-01-28T01:11:29;100549.75;;;1.32;85.32
76994;BME280;66749;47.406;18.822;2023-01-28T01:12:01;100548.06;;;1.29;85.72
76994;BME280;66749;47.406;18.822;2023-01-28T01:12:34;100550.63;;;1.31;85.75
76994;BME280;66749;47.406;18.822;2023-01-28T01:13:06;100549.72;;;1.33;85.79
76994;BME280;66749;47.406;18.822;2023-01-28T01:13:38;100550.53;;;1.35;85.45
76994;BME280;66749;47.406;18.822;2023-01-28T01:14:10;100549.72;;;1.33;85.73
76994;BME280;66749;47.406;18.822;2023-01-28T01:14:42;100548.00;;;1.34;85.74
76994;BME280;66749;47.406;18.822;2023-01-28T01:15:21;100537.69;;;1.35;85.27
76994;BME280;66749;47.406;18.822;2023-01-28T01:16:33;100545.34;;;1.38;85.51
76994;BME280;66749;47.406;18.822;2023-01-28T01:17:06;100549.69;;;1.35;85.35
76994;BME280;66749;47.406;18.822;2023-01-28T01:17:40;100547.94;;;1.35;85.58
76994;BME280;66749;47.406;18.822;2023-01-28T01:18:15;100546.22;;;1.36;85.57
76994;BME280;66749;47.406;18.822;2023-01-28T01:18:53;100556.44;;;1.41;85.23
76994;BME280;66749;47.406;18.822;2023-01-28T01:19:25;100552.19;;;1.39;85.42
76994;BME280;66749;47.406;18.822;2023-01-28T01:20:01;100556.47;;;1.39;85.75
76994;BME280;66749;47.406;18.822;2023-01-28T01:20:33;100547.06;;;1.38;85.80
76994;BME280;66749;47.406;18.822;2023-01-28T01:21:15;100547.94;;;1.35;85.50
76994;BME280;66749;47.406;18.822;2023-01-28T01:21:48;100548.81;;;1.36;85.45
76994;BME280;66749;47.406;18.822;2023-01-28T01:22:21;100549.75;;;1.32;85.92
76994;BME280;66749;47.406;18.822;2023-01-28T01:22:53;100550.59;;;1.32;85.77
76994;BME280;66749;47.406;18.822;2023-01-28T01:23:30;100551.41;;;1.34;86.00
76994;BME280;66749;47.406;18.822;2023-01-28T01:24:01;100554.84;;;1.33;86.00
76994;BME280;66749;47.406;18.822;2023-01-28T01:24:33;100551.44;;;1.33;85.62
76994;BME280;66749;47.406;18.822;2023-01-28T01:25:06;100554.06;;;1.28;85.95
76994;BME280;66749;47.406;18.822;2023-01-28T01:25:38;100546.34;;;1.30;85.93
76994;BME280;66749;47.406;18.822;2023-01-28T01:26:10;100557.44;;;1.32;85.89
76994;BME280;66749;47.406;18.822;2023-01-28T01:26:44;100552.25;;;1.35;85.79
76994;BME280;66749;47.406;18.822;2023-01-28T01:27:16;100555.66;;;1.37;85.21
76994;BME280;66749;47.406;18.822;2023-01-28T01:27:49;100548.81;;;1.37;85.47
76994;BME280;66749;47.406;18.822;2023-01-28T01:28:21;100552.22;;;1.38;85.65
76994;BME280;66749;47.406;18.822;2023-01-28T01:28:55;100549.63;;;1.39;85.66
76994;BME280;66749;47.406;18.822;2023-01-28T01:29:27;100551.28;;;1.42;85.18
76994;BME280;66749;47.406;18.822;2023-01-28T01:29:59;100548.78;;;1.39;85.38
76994;BME280;66749;47.406;18.822;2023-01-28T01:30:33;100547.06;;;1.38;85.32
76994;BME280;66749;47.406;18.822;2023-01-28T01:31:10;100549.63;;;1.39;85.21
76994;BME280;66749;47.406;18.822;2023-01-28T01:31:43;100557.38;;;1.38;85.36
76994;BME280;66749;47.406;18.822;2023-01-28T01:32:15;100553.91;;;1.39;85.43
76994;BME280;66749;47.406;18.822;2023-01-28T01:32:49;100551.34;;;1.39;85.71
76994;BME280;66749;47.406;18.822;2023-01-28T01:33:20;100545.31;;;1.40;85.65
76994;BME280;66749;47.406;18.822;2023-01-28T01:33:54;100547.00;;;1.41;85.71
76994;BME280;66749;47.406;18.822;2023-01-28T01:34:25;100545.25;;;1.43;85.27
76994;BME280;66749;47.406;18.822;2023-01-28T01:34:57;100543.53;;;1.45;85.32
76994;BME280;66749;47.406;18.822;2023-01-28T01:35:29;100545.25;;;1.45;85.48
76994;BME280;66749;47.406;18.822;2023-01-28T01:36:01;100552.06;;;1.47;85.49
76994;BME280;66749;47.406;18.822;2023-01-28T01:36:33;100546.03;;;1.48;85.32
76994;BME280;66749;47.406;18.822;2023-01-28T01:37:04;100547.81;;;1.46;85.67
76994;BME280;66749;47.406;18.822;2023-01-28T01:37:38;100552.88;;;1.49;85.43
76994;BME280;66749;47.406;18.822;2023-01-28T01:38:13;100556.31;;;1.51;85.31
76994;BME280;66749;47.406;18.822;2023-01-28T01:38:45;100552.03;;;1.49;85.37
76994;BME280;66749;47.406;18.822;2023-01-28T01:39:18;100549.47;;;1.49;85.45
76994;BME280;66749;47.406;18.822;2023-01-28T01:39:49;100546.88;;;1.49;85.19
76994;BME280;66749;47.406;18.822;2023-01-28T01:40:21;100548.63;;;1.48;85.55
76994;BME280;66749;47.406;18.822;2023-01-28T01:41:00;100556.31;;;1.51;85.49
76994;BME280;66749;47.406;18.822;2023-01-28T01:41:31;100548.59;;;1.51;85.22
76994;BME280;66749;47.406;18.822;2023-01-28T01:42:03;100551.13;;;1.53;85.39
76994;BME280;66749;47.406;18.822;2023-01-28T01:42:35;100550.22;;;1.55;85.21
76994;BME280;66749;47.406;18.822;2023-01-28T01:43:15;100552.81;;;1.54;85.19
76994;BME280;66749;47.406;18.822;2023-01-28T01:43:56;100550.28;;;1.52;84.92
76994;BME280;66749;47.406;18.822;2023-01-28T01:45:33;100551.06;;;1.56;85.09
76994;BME280;66749;47.406;18.822;2023-01-28T01:46:05;100551.03;;;1.57;85.26
76994;BME280;66749;47.406;18.822;2023-01-28T01:46:42;100554.50;;;1.55;85.05
76994;BME280;66749;47.406;18.822;2023-01-28T01:47:17;100548.56;;;1.53;85.09
76994;BME280;66749;47.406;18.822;2023-01-28T01:48:02;100555.28;;;1.58;84.95
76994;BME280;66749;47.406;18.822;2023-01-28T01:48:36;100553.59;;;1.57;85.24
76994;BME280;66749;47.406;18.822;2023-01-28T01:49:48;100554.50;;;1.55;84.81
76994;BME280;66749;47.406;18.822;2023-01-28T01:51:03;100554.44;;;1.58;85.50
76994;BME280;66749;47.406;18.822;2023-01-28T01:51:43;100557.03;;;1.59;85.17
76994;BME280;66749;47.406;18.822;2023-01-28T01:52:23;100551.88;;;1.59;85.15
76994;BME280;66749;47.406;18.822;2023-01-28T01:53:00;100556.16;;;1.59;85.17
76994;BME280;66749;47.406;18.822;2023-01-28T01:53:35;100555.28;;;1.58;85.24
76994;BME280;66749;47.406;18.822;2023-01-28T01:54:10;100558.72;;;1.60;84.83
76994;BME280;66749;47.406;18.822;2023-01-28T01:54:46;100564.72;;;1.59;85.07
76994;BME280;66749;47.406;18.822;2023-01-28T01:55:24;100557.88;;;1.60;84.93
76994;BME280;66749;47.406;18.822;2023-01-28T01:56:02;100558.72;;;1.60;85.29
76994;BME280;66749;47.406;18.822;2023-01-28T01:56:39;100557.84;;;1.61;85.24
76994;BME280;66749;47.406;18.822;2023-01-28T01:57:16;100567.31;;;1.59;85.11
76994;BME280;66749;47.406;18.822;2023-01-28T01:57:54;100561.41;;;1.53;85.12
76994;BME280;66749;47.406;18.822;2023-01-28T01:58:32;100563.13;;;1.52;85.09
76994;BME280;66749;47.406;18.822;2023-01-28T01:59:10;100563.06;;;1.55;85.13
76994;BME280;66749;47.406;18.822;2023-01-28T01:59:43;100569.03;;;1.57;84.92
76994;BME280;66749;47.406;18.822;2023-01-28T02:00:16;100564.84;;;1.53;85.19
76994;BME280;66749;47.406;18.822;2023-01-28T02:00:50;100562.28;;;1.50;84.81
76994;BME280;66749;47.406;18.822;2023-01-28T02:01:26;100564.84;;;1.50;84.91
76994;BME280;66749;47.406;18.822;2023-01-28T02:02:04;100562.25;;;1.53;85.17
76994;BME280;66749;47.406;18.822;2023-01-28T02:02:45;100565.66;;;1.55;85.05
76994;BME280;66749;47.406;18.822;2023-01-28T02:03:26;100560.44;;;1.58;84.91
76994;BME280;66749;47.406;18.822;2023-01-28T02:04:09;100570.72;;;1.58;84.85
76994;BME280;66749;47.406;18.822;2023-01-28T02:04:43;100567.31;;;1.58;85.24
76994;BME280;66749;47.406;18.822;2023-01-28T02:05:18;100562.16;;;1.59;84.79
76994;BME280;66749;47.406;18.822;2023-01-28T02:05:50;100560.44;;;1.60;85.02
76994;BME280;66749;47.406;18.822;2023-01-28T02:06:23;100557.03;;;1.59;85.03
76994;BME280;66749;47.406;18.822;2023-01-28T02:06:56;100561.31;;;1.59;85.01
76994;BME280;66749;47.406;18.822;2023-01-28T02:07:35;100564.69;;;1.61;85.06
76994;BME280;66749;47.406;18.822;2023-01-28T02:08:08;100556.94;;;1.62;84.93
76994;BME280;66749;47.406;18.822;2023-01-28T02:08:54;100557.78;;;1.64;84.76
76994;BME280;66749;47.406;18.822;2023-01-28T02:09:32;100554.34;;;1.64;84.93
76994;BME280;66749;47.406;18.822;2023-01-28T02:10:10;100557.78;;;1.64;84.95
76994;BME280;66749;47.406;18.822;2023-01-28T02:10:43;100561.25;;;1.62;84.52
76994;BME280;66749;47.406;18.822;2023-01-28T02:11:17;100562.16;;;1.59;84.45
76994;BME280;66749;47.406;18.822;2023-01-28T02:11:52;100558.78;;;1.56;84.79
76994;BME280;66749;47.406;18.822;2023-01-28T02:12:35;100559.69;;;1.53;85.15
76994;BME280;66749;47.406;18.822;2023-01-28T02:13:08;100564.75;;;1.56;85.01
76994;BME280;66749;47.406;18.822;2023-01-28T02:13:47;100559.59;;;1.59;84.92
76994;BME280;66749;47.406;18.822;2023-01-28T02:14:26;100561.31;;;1.59;84.72
76994;BME280;66749;47.406;18.822;2023-01-28T02:15:06;100560.41;;;1.61;84.83
76994;BME280;66749;47.406;18.822;2023-01-28T02:15:41;100556.16;;;1.57;84.86
76994;BME280;66749;47.406;18.822;2023-01-28T02:16:15;100560.56;;;1.52;84.71
76994;BME280;66749;47.406;18.822;2023-01-28T02:16:49;100568.34;;;1.48;85.38
76994;BME280;66749;47.406;18.822;2023-01-28T02:17:21;100564.88;;;1.49;85.25
76994;BME280;66749;47.406;18.822;2023-01-28T02:17:55;100562.28;;;1.50;85.35
76994;BME280;66749;47.406;18.822;2023-01-28T02:18:27;100564.91;;;1.47;85.09
76994;BME280;66749;47.406;18.822;2023-01-28T02:19:02;100561.44;;;1.50;85.02
76994;BME280;66749;47.406;18.822;2023-01-28T02:19:41;100567.44;;;1.52;85.26
76994;BME280;66749;47.406;18.822;2023-01-28T02:21:14;100563.06;;;1.55;84.88
76994;BME280;66749;47.406;18.822;2023-01-28T02:21:29;100558.75;;;1.57;85.34
76994;BME280;66749;47.406;18.822;2023-01-28T02:23:59;100565.66;;;1.55;85.00
76994;BME280;66749;47.406;18.822;2023-01-28T02:26:54;100565.72;;;1.52;85.32
76994;BME280;66749;47.406;18.822;2023-01-28T02:30:32;100560.69;;;1.45;85.44
76994;BME280;66749;47.406;18.822;2023-01-28T02:31:57;100562.41;;;1.44;85.65
76994;BME280;66749;47.406;18.822;2023-01-28T02:32:47;100562.38;;;1.46;85.75
76994;BME280;66749;47.406;18.822;2023-01-28T02:34:35;100552.09;;;1.46;85.82
76994;BME280;66749;47.406;18.822;2023-01-28T02:37:02;100558.91;;;1.48;85.55
76994;BME280;66749;47.406;18.822;2023-01-28T02:37:47;100555.44;;;1.49;85.72
76994;BME280;66749;47.406;18.822;2023-01-28T02:38:31;100552.13;;;1.43;85.76
76994;BME280;66749;47.406;18.822;2023-01-28T02:39:33;100548.72;;;1.44;85.62
76994;BME280;66749;47.406;18.822;2023-01-28T02:40:12;100558.13;;;1.43;85.80
76994;BME280;66749;47.406;18.822;2023-01-28T02:40:53;100555.47;;;1.48;85.72
76994;BME280;66749;47.406;18.822;2023-01-28T02:41:40;100552.13;;;1.44;85.95
76994;BME280;66749;47.406;18.822;2023-01-28T02:42:26;100555.59;;;1.40;85.78
76994;BME280;66749;47.406;18.822;2023-01-28T02:42:59;100555.50;;;1.46;85.99
76994;BME280;66749;47.406;18.822;2023-01-28T02:43:44;100549.53;;;1.46;85.69
76994;BME280;66749;47.406;18.822;2023-01-28T02:44:16;100552.94;;;1.46;85.96
76994;BME280;66749;47.406;18.822;2023-01-28T02:44:48;100550.41;;;1.43;85.57
76994;BME280;66749;47.406;18.822;2023-01-28T02:45:26;100555.53;;;1.43;86.03
76994;BME280;66749;47.406;18.822;2023-01-28T02:47:16;100552.06;;;1.47;86.00
76994;BME280;66749;47.406;18.822;2023-01-28T02:48:06;100557.25;;;1.46;85.99
76994;BME280;66749;47.406;18.822;2023-01-28T02:48:38;100553.78;;;1.47;85.65
76994;BME280;66749;47.406;18.822;2023-01-28T02:49:20;100552.94;;;1.46;85.53
76994;BME280;66749;47.406;18.822;2023-01-28T02:49:56;100555.53;;;1.45;85.57
76994;BME280;66749;47.406;18.822;2023-01-28T02:50:37;100552.06;;;1.47;85.50
76994;BME280;66749;47.406;18.822;2023-01-28T02:53:33;100548.69;;;1.45;85.80
76994;BME280;66749;47.406;18.822;2023-01-28T02:54:22;100551.28;;;1.44;85.70
76994;BME280;66749;47.406;18.822;2023-01-28T02:55:24;100560.63;;;1.48;85.87
76994;BME280;66749;47.406;18.822;2023-01-28T02:56:18;100555.50;;;1.46;86.49
76994;BME280;66749;47.406;18.822;2023-01-28T02:57:42;100553.84;;;1.42;85.72
76994;BME280;66749;47.406;18.822;2023-01-28T02:58:30;100553.81;;;1.45;85.95
76994;BME280;66749;47.406;18.822;2023-01-28T03:00:43;100560.66;;;1.46;86.02
76994;BME280;66749;47.406;18.822;2023-01-28T03:01:23;100552.91;;;1.48;86.13
76994;BME280;66749;47.406;18.822;2023-01-28T03:04:00;100548.59;;;1.51;85.78
76994;BME280;66749;47.406;18.822;2023-01-28T03:05:04;100559.69;;;1.53;85.47
76994;BME280;66749;47.406;18.822;2023-01-28T03:05:42;100554.53;;;1.53;85.67
76994;BME280;66749;47.406;18.822;2023-01-28T03:06:40;100551.16;;;1.51;85.82
76994;BME280;66749;47.406;18.822;2023-01-28T03:07:16;100553.72;;;1.51;85.72
76994;BME280;66749;47.406;18.822;2023-01-28T03:07:49;100549.53;;;1.46;85.78
76994;BME280;66749;47.406;18.822;2023-01-28T03:08:22;100561.44;;;1.51;85.69
76994;BME280;66749;47.406;18.822;2023-01-28T03:09:14;100559.72;;;1.50;85.92
76994;BME280;66749;47.406;18.822;2023-01-28T03:09:55;100555.44;;;1.49;85.95
76994;BME280;66749;47.406;18.822;2023-01-28T03:10:31;100558.03;;;1.49;85.84
76994;BME280;66749;47.406;18.822;2023-01-28T03:11:05;100555.44;;;1.49;85.59
76994;BME280;66749;47.406;18.822;2023-01-28T03:13:04;100558.88;;;1.51;85.89
76994;BME280;66749;47.406;18.822;2023-01-28T03:13:57;100559.81;;;1.46;85.85
76994;BME280;66749;47.406;18.822;2023-01-28T03:14:55;100552.91;;;1.48;85.72
76994;BME280;66749;47.406;18.822;2023-01-28T03:15:49;100558.91;;;1.48;85.76
76994;BME280;66749;47.406;18.822;2023-01-28T03:16:40;100553.81;;;1.45;86.13
76994;BME280;66749;47.406;18.822;2023-01-28T03:17:56;100563.22;;;1.46;85.85
76994;BME280;66749;47.406;18.822;2023-01-28T03:18:50;100557.16;;;1.50;85.58
76994;BME280;66749;47.406;18.822;2023-01-28T03:19:44;100562.28;;;1.50;85.96
76994;BME280;66749;47.406;18.822;2023-01-28T03:20:52;100557.16;;;1.52;86.16
76994;BME280;66749;47.406;18.822;2023-01-28T03:21:43;100561.44;;;1.50;85.51
76994;BME280;66749;47.406;18.822;2023-01-28T03:22:39;100559.72;;;1.52;85.49
76994;BME280;66749;47.406;18.822;2023-01-28T03:23:56;100561.41;;;1.53;85.74
76994;BME280;66749;47.406;18.822;2023-01-28T03:24:51;100564.00;;;1.51;86.02
76994;BME280;66749;47.406;18.822;2023-01-28T03:25:46;100560.56;;;1.52;85.68
76994;BME280;66749;47.406;18.822;2023-01-28T03:27:17;100558.88;;;1.50;86.14
76994;BME280;66749;47.406;18.822;2023-01-28T03:28:03;100553.81;;;1.45;85.95
76994;BME280;66749;47.406;18.822;2023-01-28T03:29:00;100560.59;;;1.49;86.56
76994;BME280;66749;47.406;18.822;2023-01-28T03:29:58;100558.00;;;1.52;85.94
76994;BME280;66749;47.406;18.822;2023-01-28T03:30:52;100559.66;;;1.55;86.12
76994;BME280;66749;47.406;18.822;2023-01-28T03:31:45;100555.44;;;1.49;85.99
76994;BME280;66749;47.406;18.822;2023-01-28T03:32:37;100555.50;;;1.46;86.70
76994;BME280;66749;47.406;18.822;2023-01-28T03:33:30;100562.44;;;1.41;86.46
76994;BME280;66749;47.406;18.822;2023-01-28T03:34:22;100556.44;;;1.44;86.50
76994;BME280;66749;47.406;18.822;2023-01-28T03:35:15;100552.13;;;1.44;86.72
76994;BME280;66749;47.406;18.822;2023-01-28T03:36:08;100554.69;;;1.44;86.20
76994;BME280;66749;47.406;18.822;2023-01-28T03:37:01;100558.09;;;1.46;86.28